Terminal Aerodrome Forecast
Issued by NWS

Home | Current Version | Previous Version | Text Only | Print | Product List | Glossary On
Versions: 1 2 3 4 5 6 7 8 9 10 11 12 13 14 15
000
FTUS42 KMLB 170520
TAFTIX
TAF
KTIX 170520Z 1706/1806 23003KT P6SM FEW250
     FM171400 24004KT P6SM FEW030 SCT250
     FM171730 13008KT P6SM VCTS SCT030CB BKN100
     FM172100 16006KT P6SM SCT030 BKN120
     FM180000 VRB04KT P6SM FEW030 SCT100 BKN250
      AMD NOT SKED TIL 171100=

USA.gov is the U.S. government's official web portal to all federal, state and local government web resources and services.